sensor_id;sensor_type;location;lat;lon;timestamp;temperature;humidity
4054;DHT22;2042;47.956;9.222;2023-03-24T00:01:21;8.60;26.50
4054;DHT22;2042;47.956;9.222;2023-03-24T00:03:47;8.60;26.30
4054;DHT22;2042;47.956;9.222;2023-03-24T00:06:13;8.70;25.40
4054;DHT22;2042;47.956;9.222;2023-03-24T00:08:40;8.70;24.90
4054;DHT22;2042;47.956;9.222;2023-03-24T00:11:10;8.80;25.00
4054;DHT22;2042;47.956;9.222;2023-03-24T00:13:38;8.90;25.10
4054;DHT22;2042;47.956;9.222;2023-03-24T00:16:10;8.90;22.90
4054;DHT22;2042;47.956;9.222;2023-03-24T00:18:36;9.00;21.20
4054;DHT22;2042;47.956;9.222;2023-03-24T00:21:04;8.90;19.80
4054;DHT22;2042;47.956;9.222;2023-03-24T00:23:31;8.90;17.80
4054;DHT22;2042;47.956;9.222;2023-03-24T00:26:12;8.90;17.80
4054;DHT22;2042;47.956;9.222;2023-03-24T00:28:41;8.80;18.80
4054;DHT22;2042;47.956;9.222;2023-03-24T00:31:08;8.80;19.80
4054;DHT22;2042;47.956;9.222;2023-03-24T00:33:34;8.70;21.10
4054;DHT22;2042;47.956;9.222;2023-03-24T00:36:05;8.70;21.60
4054;DHT22;2042;47.956;9.222;2023-03-24T00:38:33;8.70;22.90
4054;DHT22;2042;47.956;9.222;2023-03-24T00:40:59;8.80;23.90
4054;DHT22;2042;47.956;9.222;2023-03-24T00:43:25;8.90;26.20
4054;DHT22;2042;47.956;9.222;2023-03-24T00:45:58;9.10;27.10
4054;DHT22;2042;47.956;9.222;2023-03-24T00:48:26;9.50;19.90
4054;DHT22;2042;47.956;9.222;2023-03-24T00:50:52;9.90;9.30
4054;DHT22;2042;47.956;9.222;2023-03-24T00:53:18;10.10;1.50
4054;DHT22;2042;47.956;9.222;2023-03-24T00:55:45;10.30;1.00
4054;DHT22;2042;47.956;9.222;2023-03-24T00:58:14;10.30;1.00
4054;DHT22;2042;47.956;9.222;2023-03-24T01:00:44;10.40;1.00
4054;DHT22;2042;47.956;9.222;2023-03-24T01:03:10;10.40;1.00
4054;DHT22;2042;47.956;9.222;2023-03-24T01:05:36;10.60;1.00
4054;DHT22;2042;47.956;9.222;2023-03-24T01:08:02;10.60;1.00
4054;DHT22;2042;47.956;9.222;2023-03-24T01:10:30;10.60;1.00
4054;DHT22;2042;47.956;9.222;2023-03-24T01:12:58;10.50;1.00
4054;DHT22;2042;47.956;9.222;2023-03-24T01:15:28;10.50;1.00
4054;DHT22;2042;47.956;9.222;2023-03-24T01:17:54;10.40;1.00
4054;DHT22;2042;47.956;9.222;2023-03-24T01:20:21;10.30;1.00
4054;DHT22;2042;47.956;9.222;2023-03-24T01:22:48;10.20;1.00
4054;DHT22;2042;47.956;9.222;2023-03-24T01:25:16;10.00;1.00
4054;DHT22;2042;47.956;9.222;2023-03-24T01:27:43;9.90;2.50
4054;DHT22;2042;47.956;9.222;2023-03-24T01:30:12;9.90;4.70
4054;DHT22;2042;47.956;9.222;2023-03-24T01:32:38;9.80;6.00
4054;DHT22;2042;47.956;9.222;2023-03-24T01:35:04;9.70;7.90
4054;DHT22;2042;47.956;9.222;2023-03-24T01:37:30;9.50;9.60
4054;DHT22;2042;47.956;9.222;2023-03-24T01:39:56;9.50;12.30
4054;DHT22;2042;47.956;9.222;2023-03-24T01:42:24;9.50;14.30
4054;DHT22;2042;47.956;9.222;2023-03-24T01:44:53;9.40;15.80
4054;DHT22;2042;47.956;9.222;2023-03-24T01:47:19;9.40;16.90
4054;DHT22;2042;47.956;9.222;2023-03-24T01:49:50;9.60;15.90
4054;DHT22;2042;47.956;9.222;2023-03-24T01:52:26;9.70;12.00
4054;DHT22;2042;47.956;9.222;2023-03-24T01:55:06;9.80;7.80
4054;DHT22;2042;47.956;9.222;2023-03-24T01:57:39;10.00;6.20
4054;DHT22;2042;47.956;9.222;2023-03-24T02:00:09;10.00;5.20
4054;DHT22;2042;47.956;9.222;2023-03-24T02:02:36;10.00;4.40
4054;DHT22;2042;47.956;9.222;2023-03-24T02:05:06;9.90;5.10
4054;DHT22;2042;47.956;9.222;2023-03-24T02:10:21;9.80;8.90
4054;DHT22;2042;47.956;9.222;2023-03-24T02:12:47;9.80;6.30
4054;DHT22;2042;47.956;9.222;2023-03-24T02:15:16;9.80;2.90
4054;DHT22;2042;47.956;9.222;2023-03-24T02:28:29;10.00;9.30
4054;DHT22;2042;47.956;9.222;2023-03-24T02:49:07;10.50;1.00
4054;DHT22;2042;47.956;9.222;2023-03-24T02:56:31;10.80;1.00
4054;DHT22;2042;47.956;9.222;2023-03-24T02:59:10;10.90;1.00
4054;DHT22;2042;47.956;9.222;2023-03-24T03:01:52;11.00;1.00
4054;DHT22;2042;47.956;9.222;2023-03-24T03:04:29;11.10;1.00
4054;DHT22;2042;47.956;9.222;2023-03-24T03:07:01;11.20;1.00
4054;DHT22;2042;47.956;9.222;2023-03-24T03:09:32;11.20;1.00
4054;DHT22;2042;47.956;9.222;2023-03-24T03:11:59;11.20;1.00
4054;DHT22;2042;47.956;9.222;2023-03-24T03:14:40;11.20;1.00
4054;DHT22;2042;47.956;9.222;2023-03-24T03:17:23;11.20;1.00
4054;DHT22;2042;47.956;9.222;2023-03-24T03:20:11;11.20;1.00
4054;DHT22;2042;47.956;9.222;2023-03-24T03:22:46;11.20;1.00
4054;DHT22;2042;47.956;9.222;2023-03-24T03:25:17;11.10;1.00
4054;DHT22;2042;47.956;9.222;2023-03-24T03:27:45;11.10;1.00
4054;DHT22;2042;47.956;9.222;2023-03-24T03:30:16;10.90;1.00
4054;DHT22;2042;47.956;9.222;2023-03-24T03:32:49;10.70;1.00
4054;DHT22;2042;47.956;9.222;2023-03-24T03:35:21;10.60;1.00
4054;DHT22;2042;47.956;9.222;2023-03-24T03:38:12;10.50;1.00
4054;DHT22;2042;47.956;9.222;2023-03-24T03:40:58;10.40;1.00
4054;DHT22;2042;47.956;9.222;2023-03-24T03:43:25;10.40;1.00
4054;DHT22;2042;47.956;9.222;2023-03-24T03:45:52;10.30;1.00
4054;DHT22;2042;47.956;9.222;2023-03-24T03:48:18;10.20;1.00
4054;DHT22;2042;47.956;9.222;2023-03-24T03:50:45;10.10;1.00
4054;DHT22;2042;47.956;9.222;2023-03-24T03:53:14;10.00;1.00
4054;DHT22;2042;47.956;9.222;2023-03-24T03:55:40;9.90;1.00
4054;DHT22;2042;47.956;9.222;2023-03-24T03:58:06;9.90;1.70
4054;DHT22;2042;47.956;9.222;2023-03-24T04:00:33;9.80;1.90
4054;DHT22;2042;47.956;9.222;2023-03-24T04:05:51;9.70;5.10
4054;DHT22;2042;47.956;9.222;2023-03-24T04:08:44;9.70;5.50
4054;DHT22;2042;47.956;9.222;2023-03-24T04:19:35;9.50;11.80
4054;DHT22;2042;47.956;9.222;2023-03-24T04:27:51;9.50;18.30
4054;DHT22;2042;47.956;9.222;2023-03-24T04:33:05;9.60;13.10
4054;DHT22;2042;47.956;9.222;2023-03-24T04:35:39;9.50;11.00
4054;DHT22;2042;47.956;9.222;2023-03-24T04:38:19;9.40;12.10
4054;DHT22;2042;47.956;9.222;2023-03-24T04:40:54;9.50;11.90
4054;DHT22;2042;47.956;9.222;2023-03-24T04:43:24;9.50;10.60
4054;DHT22;2042;47.956;9.222;2023-03-24T04:45:52;9.50;11.70
4054;DHT22;2042;47.956;9.222;2023-03-24T04:48:22;9.50;14.40
4054;DHT22;2042;47.956;9.222;2023-03-24T04:50:59;9.60;15.90
4054;DHT22;2042;47.956;9.222;2023-03-24T04:53:26;9.70;16.30
4054;DHT22;2042;47.956;9.222;2023-03-24T04:58:34;9.70;17.30
4054;DHT22;2042;47.956;9.222;2023-03-24T05:01:00;9.80;18.50
4054;DHT22;2042;47.956;9.222;2023-03-24T05:03:27;9.80;20.30
4054;DHT22;2042;47.956;9.222;2023-03-24T05:05:53;9.80;22.00
4054;DHT22;2042;47.956;9.222;2023-03-24T05:08:19;9.80;22.50
4054;DHT22;2042;47.956;9.222;2023-03-24T05:10:45;9.80;21.50
4054;DHT22;2042;47.956;9.222;2023-03-24T05:13:12;9.70;19.60
4054;DHT22;2042;47.956;9.222;2023-03-24T05:15:37;9.70;18.00
4054;DHT22;2042;47.956;9.222;2023-03-24T05:18:04;9.70;17.10
4054;DHT22;2042;47.956;9.222;2023-03-24T05:20:30;9.70;15.40
4054;DHT22;2042;47.956;9.222;2023-03-24T05:22:56;9.70;15.00
4054;DHT22;2042;47.956;9.222;2023-03-24T05:25:22;9.70;13.90
4054;DHT22;2042;47.956;9.222;2023-03-24T05:27:47;9.80;11.80
4054;DHT22;2042;47.956;9.222;2023-03-24T05:30:14;9.90;12.20
4054;DHT22;2042;47.956;9.222;2023-03-24T05:32:40;9.90;11.60
4054;DHT22;2042;47.956;9.222;2023-03-24T05:35:06;10.00;8.90
4054;DHT22;2042;47.956;9.222;2023-03-24T05:37:32;10.00;6.00
4054;DHT22;2042;47.956;9.222;2023-03-24T05:39:57;10.00;5.90
4054;DHT22;2042;47.956;9.222;2023-03-24T05:42:23;10.10;4.30
4054;DHT22;2042;47.956;9.222;2023-03-24T05:44:49;10.10;2.50
4054;DHT22;2042;47.956;9.222;2023-03-24T05:47:15;10.10;1.00
4054;DHT22;2042;47.956;9.222;2023-03-24T05:49:41;10.20;1.00
4054;DHT22;2042;47.956;9.222;2023-03-24T05:52:08;10.20;1.00
4054;DHT22;2042;47.956;9.222;2023-03-24T05:54:35;10.20;1.00
4054;DHT22;2042;47.956;9.222;2023-03-24T05:57:01;10.30;1.00
4054;DHT22;2042;47.956;9.222;2023-03-24T05:59:27;10.40;1.00
4054;DHT22;2042;47.956;9.222;2023-03-24T06:01:52;10.40;1.00
4054;DHT22;2042;47.956;9.222;2023-03-24T06:04:21;10.50;1.00
4054;DHT22;2042;47.956;9.222;2023-03-24T06:06:47;10.50;1.00
4054;DHT22;2042;47.956;9.222;2023-03-24T06:09:14;10.60;1.00
4054;DHT22;2042;47.956;9.222;2023-03-24T06:11:43;10.60;1.00
4054;DHT22;2042;47.956;9.222;2023-03-24T06:14:09;10.60;1.00
4054;DHT22;2042;47.956;9.222;2023-03-24T06:16:35;10.60;1.00
4054;DHT22;2042;47.956;9.222;2023-03-24T06:19:05;10.70;1.00
4054;DHT22;2042;47.956;9.222;2023-03-24T06:21:32;10.80;1.00
4054;DHT22;2042;47.956;9.222;2023-03-24T06:23:57;10.80;1.00
4054;DHT22;2042;47.956;9.222;2023-03-24T06:26:24;10.90;1.00
4054;DHT22;2042;47.956;9.222;2023-03-24T06:28:50;10.90;1.00
4054;DHT22;2042;47.956;9.222;2023-03-24T06:31:17;10.90;1.00
4054;DHT22;2042;47.956;9.222;2023-03-24T06:33:46;10.90;1.00
4054;DHT22;2042;47.956;9.222;2023-03-24T06:36:13;10.90;1.00
4054;DHT22;2042;47.956;9.222;2023-03-24T06:38:39;10.80;1.00
4054;DHT22;2042;47.956;9.222;2023-03-24T06:41:05;10.80;1.00
4054;DHT22;2042;47.956;9.222;2023-03-24T06:43:31;10.70;1.00
4054;DHT22;2042;47.956;9.222;2023-03-24T06:45:57;10.60;1.00
4054;DHT22;2042;47.956;9.222;2023-03-24T06:48:24;10.60;1.00
4054;DHT22;2042;47.956;9.222;2023-03-24T06:50:51;10.70;1.00
4054;DHT22;2042;47.956;9.222;2023-03-24T06:53:17;10.70;1.00
4054;DHT22;2042;47.956;9.222;2023-03-24T06:55:43;10.80;1.00
4054;DHT22;2042;47.956;9.222;2023-03-24T06:58:09;10.90;1.00
4054;DHT22;2042;47.956;9.222;2023-03-24T07:00:35;10.90;1.00
4054;DHT22;2042;47.956;9.222;2023-03-24T07:03:01;11.00;1.00
4054;DHT22;2042;47.956;9.222;2023-03-24T07:05:27;11.10;1.00
4054;DHT22;2042;47.956;9.222;2023-03-24T07:07:53;11.10;1.00
4054;DHT22;2042;47.956;9.222;2023-03-24T07:10:19;11.20;1.00
4054;DHT22;2042;47.956;9.222;2023-03-24T07:12:46;11.30;1.00
4054;DHT22;2042;47.956;9.222;2023-03-24T07:15:12;11.40;1.00
4054;DHT22;2042;47.956;9.222;2023-03-24T07:17:40;11.50;1.00
4054;DHT22;2042;47.956;9.222;2023-03-24T07:20:06;11.60;1.00
4054;DHT22;2042;47.956;9.222;2023-03-24T07:22:34;11.70;1.00
4054;DHT22;2042;47.956;9.222;2023-03-24T07:25:03;11.60;1.00
4054;DHT22;2042;47.956;9.222;2023-03-24T07:27:30;11.40;1.00
4054;DHT22;2042;47.956;9.222;2023-03-24T07:29:58;11.30;1.00
4054;DHT22;2042;47.956;9.222;2023-03-24T07:32:25;11.20;1.00
4054;DHT22;2042;47.956;9.222;2023-03-24T07:34:53;11.10;1.00
4054;DHT22;2042;47.956;9.222;2023-03-24T07:37:19;11.10;1.00
4054;DHT22;2042;47.956;9.222;2023-03-24T07:39:47;11.00;1.00
4054;DHT22;2042;47.956;9.222;2023-03-24T07:42:12;10.90;1.00
4054;DHT22;2042;47.956;9.222;2023-03-24T07:44:38;10.80;1.00
4054;DHT22;2042;47.956;9.222;2023-03-24T07:47:04;10.80;1.00
4054;DHT22;2042;47.956;9.222;2023-03-24T07:49:30;10.70;1.00
4054;DHT22;2042;47.956;9.222;2023-03-24T07:51:57;10.60;1.00
4054;DHT22;2042;47.956;9.222;2023-03-24T07:54:26;10.60;1.00
4054;DHT22;2042;47.956;9.222;2023-03-24T07:56:52;10.60;2.40
4054;DHT22;2042;47.956;9.222;2023-03-24T07:59:19;10.50;3.70
4054;DHT22;2042;47.956;9.222;2023-03-24T08:01:47;10.50;4.30
4054;DHT22;2042;47.956;9.222;2023-03-24T08:04:14;10.60;4.00
4054;DHT22;2042;47.956;9.222;2023-03-24T08:06:44;10.50;5.10
4054;DHT22;2042;47.956;9.222;2023-03-24T08:09:12;10.50;4.30
4054;DHT22;2042;47.956;9.222;2023-03-24T08:11:39;10.50;4.70
4054;DHT22;2042;47.956;9.222;2023-03-24T08:14:05;10.60;5.20
4054;DHT22;2042;47.956;9.222;2023-03-24T08:16:31;10.60;5.00
4054;DHT22;2042;47.956;9.222;2023-03-24T08:18:56;10.60;5.80
4054;DHT22;2042;47.956;9.222;2023-03-24T08:21:26;10.60;5.60
4054;DHT22;2042;47.956;9.222;2023-03-24T08:23:52;10.60;5.80
4054;DHT22;2042;47.956;9.222;2023-03-24T08:26:18;10.70;6.20
4054;DHT22;2042;47.956;9.222;2023-03-24T08:28:47;10.70;6.00
4054;DHT22;2042;47.956;9.222;2023-03-24T08:31:14;10.80;7.00
4054;DHT22;2042;47.956;9.222;2023-03-24T08:33:40;10.90;5.80
4054;DHT22;2042;47.956;9.222;2023-03-24T08:36:07;10.80;4.60
4054;DHT22;2042;47.956;9.222;2023-03-24T08:38:34;10.70;4.70
4054;DHT22;2042;47.956;9.222;2023-03-24T08:41:05;10.60;5.60
4054;DHT22;2042;47.956;9.222;2023-03-24T08:43:35;10.50;7.30
4054;DHT22;2042;47.956;9.222;2023-03-24T08:46:05;10.50;9.90
4054;DHT22;2042;47.956;9.222;2023-03-24T08:48:31;10.50;12.80
4054;DHT22;2042;47.956;9.222;2023-03-24T08:50:57;10.60;14.30
4054;DHT22;2042;47.956;9.222;2023-03-24T08:53:23;10.80;14.50
4054;DHT22;2042;47.956;9.222;2023-03-24T08:55:51;10.80;14.10
4054;DHT22;2042;47.956;9.222;2023-03-24T08:58:20;10.90;13.50
4054;DHT22;2042;47.956;9.222;2023-03-24T09:00:47;10.90;13.60
4054;DHT22;2042;47.956;9.222;2023-03-24T09:03:17;11.00;13.30
4054;DHT22;2042;47.956;9.222;2023-03-24T09:05:47;11.00;12.80
4054;DHT22;2042;47.956;9.222;2023-03-24T09:08:14;11.00;12.80
4054;DHT22;2042;47.956;9.222;2023-03-24T09:10:43;11.00;13.00
4054;DHT22;2042;47.956;9.222;2023-03-24T09:13:12;11.00;13.20
4054;DHT22;2042;47.956;9.222;2023-03-24T09:15:38;11.00;12.60
4054;DHT22;2042;47.956;9.222;2023-03-24T09:18:05;11.00;13.30
4054;DHT22;2042;47.956;9.222;2023-03-24T09:20:30;11.10;13.30
4054;DHT22;2042;47.956;9.222;2023-03-24T09:22:57;11.10;13.30
4054;DHT22;2042;47.956;9.222;2023-03-24T09:25:22;11.10;12.30
4054;DHT22;2042;47.956;9.222;2023-03-24T09:27:50;11.00;11.00
4054;DHT22;2042;47.956;9.222;2023-03-24T09:30:18;11.10;11.80
4054;DHT22;2042;47.956;9.222;2023-03-24T09:32:46;11.10;11.10
4054;DHT22;2042;47.956;9.222;2023-03-24T09:35:13;11.10;9.50
4054;DHT22;2042;47.956;9.222;2023-03-24T09:37:41;11.20;9.90
4054;DHT22;2042;47.956;9.222;2023-03-24T09:40:21;11.30;9.20
4054;DHT22;2042;47.956;9.222;2023-03-24T09:43:35;11.30;6.40
4054;DHT22;2042;47.956;9.222;2023-03-24T09:45:51;11.30;5.80
4054;DHT22;2042;47.956;9.222;2023-03-24T09:48:30;11.30;2.20
4054;DHT22;2042;47.956;9.222;2023-03-24T09:51:03;11.40;3.90
4054;DHT22;2042;47.956;9.222;2023-03-24T09:56:15;11.80;1.00
4054;DHT22;2042;47.956;9.222;2023-03-24T09:58:45;12.20;1.00
4054;DHT22;2042;47.956;9.222;2023-03-24T10:01:17;12.60;1.00
4054;DHT22;2042;47.956;9.222;2023-03-24T10:03:45;13.00;1.00
4054;DHT22;2042;47.956;9.222;2023-03-24T10:06:25;13.30;1.00
4054;DHT22;2042;47.956;9.222;2023-03-24T10:12:14;13.30;1.00
4054;DHT22;2042;47.956;9.222;2023-03-24T10:17:27;13.20;1.00
4054;DHT22;2042;47.956;9.222;2023-03-24T10:20:23;13.20;1.00
4054;DHT22;2042;47.956;9.222;2023-03-24T10:28:20;13.10;1.00
4054;DHT22;2042;47.956;9.222;2023-03-24T10:30:47;13.10;1.00
4054;DHT22;2042;47.956;9.222;2023-03-24T10:33:14;13.10;1.00
4054;DHT22;2042;47.956;9.222;2023-03-24T10:35:57;13.10;1.00
4054;DHT22;2042;47.956;9.222;2023-03-24T10:38:26;13.00;1.00
4054;DHT22;2042;47.956;9.222;2023-03-24T10:40:53;13.00;1.00
4054;DHT22;2042;47.956;9.222;2023-03-24T10:43:21;12.80;1.00
4054;DHT22;2042;47.956;9.222;2023-03-24T10:45:50;12.60;1.00
4054;DHT22;2042;47.956;9.222;2023-03-24T10:48:46;12.50;1.00
4054;DHT22;2042;47.956;9.222;2023-03-24T10:51:31;12.30;1.00
4054;DHT22;2042;47.956;9.222;2023-03-24T10:54:15;12.10;1.00
4054;DHT22;2042;47.956;9.222;2023-03-24T10:56:47;11.90;1.00
4054;DHT22;2042;47.956;9.222;2023-03-24T11:04:36;12.10;1.00
4054;DHT22;2042;47.956;9.222;2023-03-24T11:07:13;12.10;1.00
4054;DHT22;2042;47.956;9.222;2023-03-24T11:09:46;12.00;1.00
4054;DHT22;2042;47.956;9.222;2023-03-24T11:12:26;11.90;1.00
4054;DHT22;2042;47.956;9.222;2023-03-24T11:15:21;11.70;1.00
4054;DHT22;2042;47.956;9.222;2023-03-24T11:17:52;11.60;1.00
4054;DHT22;2042;47.956;9.222;2023-03-24T11:23:02;11.30;1.00
4054;DHT22;2042;47.956;9.222;2023-03-24T11:25:34;11.20;1.00
4054;DHT22;2042;47.956;9.222;2023-03-24T11:28:12;11.10;1.00
4054;DHT22;2042;47.956;9.222;2023-03-24T11:30:50;11.10;2.30
4054;DHT22;2042;47.956;9.222;2023-03-24T11:33:22;11.10;4.00
4054;DHT22;2042;47.956;9.222;2023-03-24T11:35:51;11.10;5.10
4054;DHT22;2042;47.956;9.222;2023-03-24T11:38:18;11.10;5.60
4054;DHT22;2042;47.956;9.222;2023-03-24T11:40:55;11.10;6.00
4054;DHT22;2042;47.956;9.222;2023-03-24T11:43:23;11.10;7.20
4054;DHT22;2042;47.956;9.222;2023-03-24T11:48:38;11.10;9.40
4054;DHT22;2042;47.956;9.222;2023-03-24T11:51:08;11.20;7.20
4054;DHT22;2042;47.956;9.222;2023-03-24T11:53:45;11.10;5.50
4054;DHT22;2042;47.956;9.222;2023-03-24T11:56:40;10.90;4.90
4054;DHT22;2042;47.956;9.222;2023-03-24T12:02:23;10.60;7.60
4054;DHT22;2042;47.956;9.222;2023-03-24T12:13:16;10.40;9.60
4054;DHT22;2042;47.956;9.222;2023-03-24T12:22:05;10.30;12.60
4054;DHT22;2042;47.956;9.222;2023-03-24T12:30:23;9.90;12.30
4054;DHT22;2042;47.956;9.222;2023-03-24T12:41:20;9.80;13.10
4054;DHT22;2042;47.956;9.222;2023-03-24T12:54:49;9.80;12.70
4054;DHT22;2042;47.956;9.222;2023-03-24T12:57:20;9.70;13.70
4054;DHT22;2042;47.956;9.222;2023-03-24T12:59:57;9.80;16.50
4054;DHT22;2042;47.956;9.222;2023-03-24T13:02:32;9.90;17.30
4054;DHT22;2042;47.956;9.222;2023-03-24T13:05:04;10.10;18.20
4054;DHT22;2042;47.956;9.222;2023-03-24T13:07:35;10.20;16.90
4054;DHT22;2042;47.956;9.222;2023-03-24T13:10:28;10.40;16.20
4054;DHT22;2042;47.956;9.222;2023-03-24T13:20:59;11.20;5.00
4054;DHT22;2042;47.956;9.222;2023-03-24T13:32:43;11.40;1.20
4054;DHT22;2042;47.956;9.222;2023-03-24T13:40:38;11.00;1.00
4054;DHT22;2042;47.956;9.222;2023-03-24T13:43:17;10.90;1.20
4054;DHT22;2042;47.956;9.222;2023-03-24T13:45:45;10.80;1.80
4054;DHT22;2042;47.956;9.222;2023-03-24T13:53:38;10.40;2.30
4054;DHT22;2042;47.956;9.222;2023-03-24T13:56:08;10.30;4.50
4054;DHT22;2042;47.956;9.222;2023-03-24T14:01:38;10.20;5.10
4054;DHT22;2042;47.956;9.222;2023-03-24T14:04:25;10.10;7.00
4054;DHT22;2042;47.956;9.222;2023-03-24T14:06:58;10.00;7.30
4054;DHT22;2042;47.956;9.222;2023-03-24T14:09:57;10.00;9.40
4054;DHT22;2042;47.956;9.222;2023-03-24T14:12:23;10.10;10.30
4054;DHT22;2042;47.956;9.222;2023-03-24T14:15:18;10.10;9.90
4054;DHT22;2042;47.956;9.222;2023-03-24T14:17:49;10.10;9.10
4054;DHT22;2042;47.956;9.222;2023-03-24T14:22:53;10.00;11.20
4054;DHT22;2042;47.956;9.222;2023-03-24T14:25:25;10.00;10.40
4054;DHT22;2042;47.956;9.222;2023-03-24T14:28:40;10.00;10.80
4054;DHT22;2042;47.956;9.222;2023-03-24T14:33:27;9.90;12.50
4054;DHT22;2042;47.956;9.222;2023-03-24T14:36:02;9.90;12.90
4054;DHT22;2042;47.956;9.222;2023-03-24T14:38:35;9.90;14.30
4054;DHT22;2042;47.956;9.222;2023-03-24T14:41:07;10.00;14.70
4054;DHT22;2042;47.956;9.222;2023-03-24T14:51:41;10.10;9.70
4054;DHT22;2042;47.956;9.222;2023-03-24T14:56:57;10.20;5.80
4054;DHT22;2042;47.956;9.222;2023-03-24T15:07:43;9.80;6.10
4054;DHT22;2042;47.956;9.222;2023-03-24T15:10:15;9.70;5.80
4054;DHT22;2042;47.956;9.222;2023-03-24T15:12:46;9.50;6.80
4054;DHT22;2042;47.956;9.222;2023-03-24T15:15:23;9.50;9.10
4054;DHT22;2042;47.956;9.222;2023-03-24T15:17:50;9.50;9.60
4054;DHT22;2042;47.956;9.222;2023-03-24T15:22:45;9.40;8.10
4054;DHT22;2042;47.956;9.222;2023-03-24T15:25:14;9.30;7.70
4054;DHT22;2042;47.956;9.222;2023-03-24T15:27:46;9.20;8.10
4054;DHT22;2042;47.956;9.222;2023-03-24T15:30:13;9.10;8.70
4054;DHT22;2042;47.956;9.222;2023-03-24T15:32:41;9.10;9.10
4054;DHT22;2042;47.956;9.222;2023-03-24T15:35:23;9.10;9.40
4054;DHT22;2042;47.956;9.222;2023-03-24T15:37:55;9.00;9.80
4054;DHT22;2042;47.956;9.222;2023-03-24T15:42:55;8.90;9.20
4054;DHT22;2042;47.956;9.222;2023-03-24T15:45:36;8.90;9.00
4054;DHT22;2042;47.956;9.222;2023-03-24T15:48:13;8.80;9.00
4054;DHT22;2042;47.956;9.222;2023-03-24T15:50:55;8.80;9.00
4054;DHT22;2042;47.956;9.222;2023-03-24T15:53:25;8.70;9.00
4054;DHT22;2042;47.956;9.222;2023-03-24T15:56:26;8.70;8.20
4054;DHT22;2042;47.956;9.222;2023-03-24T15:58:55;8.60;8.60
4054;DHT22;2042;47.956;9.222;2023-03-24T16:01:26;8.50;8.40
4054;DHT22;2042;47.956;9.222;2023-03-24T16:04:04;8.40;9.00
4054;DHT22;2042;47.956;9.222;2023-03-24T16:06:33;8.40;10.70
4054;DHT22;2042;47.956;9.222;2023-03-24T16:09:11;8.40;9.90
4054;DHT22;2042;47.956;9.222;2023-03-24T16:11:38;8.30;10.70
4054;DHT22;2042;47.956;9.222;2023-03-24T16:14:22;8.30;9.40
4054;DHT22;2042;47.956;9.222;2023-03-24T16:16:55;8.20;9.00
4054;DHT22;2042;47.956;9.222;2023-03-24T16:19:23;8.20;9.50
4054;DHT22;2042;47.956;9.222;2023-03-24T16:21:49;8.10;9.70
4054;DHT22;2042;47.956;9.222;2023-03-24T16:24:16;8.10;10.20
4054;DHT22;2042;47.956;9.222;2023-03-24T16:26:42;8.00;11.20
4054;DHT22;2042;47.956;9.222;2023-03-24T16:29:16;8.00;12.60
4054;DHT22;2042;47.956;9.222;2023-03-24T16:31:48;8.10;13.80
4054;DHT22;2042;47.956;9.222;2023-03-24T16:34:15;8.10;14.70
4054;DHT22;2042;47.956;9.222;2023-03-24T16:36:43;8.10;14.90
4054;DHT22;2042;47.956;9.222;2023-03-24T16:39:13;8.10;14.50
4054;DHT22;2042;47.956;9.222;2023-03-24T16:41:41;8.20;13.40
4054;DHT22;2042;47.956;9.222;2023-03-24T16:44:08;8.20;13.20
4054;DHT22;2042;47.956;9.222;2023-03-24T16:46:35;8.20;12.70
4054;DHT22;2042;47.956;9.222;2023-03-24T16:49:05;8.20;11.90
4054;DHT22;2042;47.956;9.222;2023-03-24T16:51:33;8.10;10.10
4054;DHT22;2042;47.956;9.222;2023-03-24T16:54:00;8.00;8.90
4054;DHT22;2042;47.956;9.222;2023-03-24T16:56:27;7.90;8.90
4054;DHT22;2042;47.956;9.222;2023-03-24T16:58:54;7.80;9.20
4054;DHT22;2042;47.956;9.222;2023-03-24T17:01:38;7.80;10.40
4054;DHT22;2042;47.956;9.222;2023-03-24T17:04:06;7.80;12.90
4054;DHT22;2042;47.956;9.222;2023-03-24T17:06:39;7.80;15.80
4054;DHT22;2042;47.956;9.222;2023-03-24T17:09:05;7.70;15.90
4054;DHT22;2042;47.956;9.222;2023-03-24T17:11:40;7.70;17.80
4054;DHT22;2042;47.956;9.222;2023-03-24T17:14:08;7.70;18.40
4054;DHT22;2042;47.956;9.222;2023-03-24T17:16:43;7.60;18.80
4054;DHT22;2042;47.956;9.222;2023-03-24T17:19:14;7.70;20.60
4054;DHT22;2042;47.956;9.222;2023-03-24T17:21:44;7.60;21.70
4054;DHT22;2042;47.956;9.222;2023-03-24T17:24:13;7.60;21.80
4054;DHT22;2042;47.956;9.222;2023-03-24T17:26:40;7.50;22.80
4054;DHT22;2042;47.956;9.222;2023-03-24T17:29:08;7.40;23.50
4054;DHT22;2042;47.956;9.222;2023-03-24T17:31:35;7.30;24.80
4054;DHT22;2042;47.956;9.222;2023-03-24T17:34:01;7.30;25.80
4054;DHT22;2042;47.956;9.222;2023-03-24T17:36:27;7.30;26.50
4054;DHT22;2042;47.956;9.222;2023-03-24T17:38:54;7.20;27.00
4054;DHT22;2042;47.956;9.222;2023-03-24T17:41:19;7.20;27.10
4054;DHT22;2042;47.956;9.222;2023-03-24T17:43:47;7.20;27.60
4054;DHT22;2042;47.956;9.222;2023-03-24T17:46:13;7.20;27.70
4054;DHT22;2042;47.956;9.222;2023-03-24T17:48:39;7.10;27.60
4054;DHT22;2042;47.956;9.222;2023-03-24T17:51:05;7.10;27.40
4054;DHT22;2042;47.956;9.222;2023-03-24T17:53:31;7.00;27.10
4054;DHT22;2042;47.956;9.222;2023-03-24T17:56:01;7.00;26.40
4054;DHT22;2042;47.956;9.222;2023-03-24T17:58:32;6.90;27.00
4054;DHT22;2042;47.956;9.222;2023-03-24T18:01:01;6.90;22.50
4054;DHT22;2042;47.956;9.222;2023-03-24T18:03:33;6.80;22.90
4054;DHT22;2042;47.956;9.222;2023-03-24T18:06:08;6.80;24.10
4054;DHT22;2042;47.956;9.222;2023-03-24T18:08:35;6.80;27.70
4054;DHT22;2042;47.956;9.222;2023-03-24T18:11:08;6.70;27.00
4054;DHT22;2042;47.956;9.222;2023-03-24T18:13:35;6.70;26.40
4054;DHT22;2042;47.956;9.222;2023-03-24T18:16:02;6.70;27.00
4054;DHT22;2042;47.956;9.222;2023-03-24T18:18:32;6.80;26.70
4054;DHT22;2042;47.956;9.222;2023-03-24T18:20:58;6.80;26.40
4054;DHT22;2042;47.956;9.222;2023-03-24T18:23:27;6.80;26.10
4054;DHT22;2042;47.956;9.222;2023-03-24T18:25:58;6.80;25.70
4054;DHT22;2042;47.956;9.222;2023-03-24T18:28:25;6.80;24.60
4054;DHT22;2042;47.956;9.222;2023-03-24T18:30:51;6.80;24.30
4054;DHT22;2042;47.956;9.222;2023-03-24T18:33:16;6.70;24.40
4054;DHT22;2042;47.956;9.222;2023-03-24T18:35:48;6.70;23.90
4054;DHT22;2042;47.956;9.222;2023-03-24T18:38:16;6.70;24.20
4054;DHT22;2042;47.956;9.222;2023-03-24T18:40:58;6.60;24.50
4054;DHT22;2042;47.956;9.222;2023-03-24T18:43:25;6.50;24.90
4054;DHT22;2042;47.956;9.222;2023-03-24T18:45:51;6.50;25.00
4054;DHT22;2042;47.956;9.222;2023-03-24T18:48:21;6.40;25.30
4054;DHT22;2042;47.956;9.222;2023-03-24T18:50:50;6.40;26.00
4054;DHT22;2042;47.956;9.222;2023-03-24T18:53:20;6.40;26.40
4054;DHT22;2042;47.956;9.222;2023-03-24T18:55:48;6.30;26.80
4054;DHT22;2042;47.956;9.222;2023-03-24T18:58:17;6.30;27.10
4054;DHT22;2042;47.956;9.222;2023-03-24T19:00:49;6.30;27.90
4054;DHT22;2042;47.956;9.222;2023-03-24T19:03:16;6.30;28.40
4054;DHT22;2042;47.956;9.222;2023-03-24T19:05:42;6.30;29.00
4054;DHT22;2042;47.956;9.222;2023-03-24T19:08:10;6.20;29.40
4054;DHT22;2042;47.956;9.222;2023-03-24T19:10:40;6.20;29.40
4054;DHT22;2042;47.956;9.222;2023-03-24T19:13:13;6.20;29.70
4054;DHT22;2042;47.956;9.222;2023-03-24T19:15:40;6.10;29.90
4054;DHT22;2042;47.956;9.222;2023-03-24T19:18:06;6.10;30.20
4054;DHT22;2042;47.956;9.222;2023-03-24T19:20:32;6.10;30.40
4054;DHT22;2042;47.956;9.222;2023-03-24T19:22:59;6.00;30.60
4054;DHT22;2042;47.956;9.222;2023-03-24T19:25:25;6.00;31.00
4054;DHT22;2042;47.956;9.222;2023-03-24T19:27:51;6.00;31.80
4054;DHT22;2042;47.956;9.222;2023-03-24T19:30:17;6.00;32.30
4054;DHT22;2042;47.956;9.222;2023-03-24T19:32:44;6.00;32.70
4054;DHT22;2042;47.956;9.222;2023-03-24T19:35:11;6.00;32.70
4054;DHT22;2042;47.956;9.222;2023-03-24T19:37:37;5.90;32.30
4054;DHT22;2042;47.956;9.222;2023-03-24T19:40:05;5.90;32.20
4054;DHT22;2042;47.956;9.222;2023-03-24T19:42:36;5.80;32.00
4054;DHT22;2042;47.956;9.222;2023-03-24T19:45:15;5.80;32.10